createdAt,value
2023-01-13T00:04:32.513Z,11.51
2023-01-13T00:09:32.383Z,11.46
2023-01-13T00:14:32.342Z,11.43
2023-01-13T00:19:32.369Z,11.33
2023-01-13T00:24:32.316Z,11.44
2023-01-13T00:29:32.243Z,11.47
2023-01-13T00:34:32.120Z,11.46
2023-01-13T00:39:32.044Z,11.40
2023-01-13T00:44:31.994Z,11.29
2023-01-13T00:49:32.112Z,11.43
2023-01-13T00:54:32.037Z,11.42
2023-01-13T00:59:31.835Z,11.46
2023-01-13T01:04:31.759Z,11.32
2023-01-13T01:09:31.710Z,11.46
2023-01-13T01:14:31.813Z,11.22
2023-01-13T01:19:31.667Z,11.18
2023-01-13T01:24:31.537Z,11.14
2023-01-13T01:29:31.518Z,11.09
2023-01-13T01:34:31.421Z,11.17
2023-01-13T01:39:31.368Z,11.10
2023-01-13T01:44:31.307Z,10.97
2023-01-13T01:49:31.247Z,11.06
2023-01-13T01:54:31.185Z,10.97
2023-01-13T01:59:31.149Z,11.09
2023-01-13T02:04:31.091Z,11.04
2023-01-13T02:09:31.037Z,10.91
2023-01-13T02:14:30.975Z,10.88
2023-01-13T02:19:32.052Z,11.02
2023-01-13T02:24:30.858Z,10.84
2023-01-13T02:29:31.002Z,10.84
2023-01-13T02:34:30.956Z,10.70
2023-01-13T02:39:30.759Z,10.59
2023-01-13T02:44:30.628Z,10.40
2023-01-13T02:49:30.577Z,10.36
2023-01-13T02:54:30.540Z,10.44
2023-01-13T02:59:30.465Z,10.04
2023-01-13T03:04:30.576Z,9.91
2023-01-13T03:09:30.368Z,9.81
2023-01-13T03:14:30.457Z,9.65
2023-01-13T03:19:31.449Z,9.58
2023-01-13T03:24:30.418Z,9.43
2023-01-13T03:29:30.281Z,9.47
2023-01-13T03:34:31.228Z,9.29
2023-01-13T03:39:30.064Z,9.13
2023-01-13T03:44:31.956Z,8.98
2023-01-13T03:49:29.947Z,8.96
2023-01-13T03:54:30.096Z,8.84
2023-01-13T03:59:29.894Z,8.91
2023-01-13T04:04:29.883Z,8.96
2023-01-13T04:09:29.803Z,8.92
2023-01-13T04:14:33.117Z,8.81
2023-01-13T04:19:29.612Z,8.81
2023-01-13T04:24:29.568Z,8.87
2023-01-13T04:29:29.522Z,8.91
2023-01-13T04:34:29.433Z,8.87
2023-01-13T04:39:29.363Z,8.84
2023-01-13T04:44:29.322Z,8.98
2023-01-13T04:49:29.277Z,9.13
2023-01-13T04:54:29.228Z,9.15
2023-01-13T04:59:30.316Z,9.08
2023-01-13T05:04:29.287Z,9.13
2023-01-13T05:09:29.166Z,9.35
2023-01-13T05:14:29.124Z,9.20
2023-01-13T05:19:29.058Z,9.11
2023-01-13T05:24:28.915Z,9.05
2023-01-13T05:29:28.964Z,9.05
2023-01-13T05:34:28.793Z,9.01
2023-01-13T05:39:28.724Z,8.98
2023-01-13T05:44:28.701Z,9.04
2023-01-13T05:49:28.603Z,9.17
2023-01-13T05:54:28.577Z,9.20
2023-01-13T05:59:28.630Z,9.17
2023-01-13T06:04:28.474Z,9.05
2023-01-13T06:09:28.399Z,9.24
2023-01-13T06:14:28.526Z,9.04
2023-01-13T06:19:28.429Z,9.02
2023-01-13T06:24:28.222Z,9.10
2023-01-13T06:29:28.315Z,9.10
2023-01-13T06:34:28.173Z,9.10
2023-01-13T06:39:28.029Z,9.08
2023-01-13T06:44:27.997Z,8.99
2023-01-13T06:49:27.985Z,8.96
2023-01-13T06:54:27.973Z,8.79
2023-01-13T06:59:27.852Z,8.74
2023-01-13T07:04:27.777Z,8.80
2023-01-13T07:09:27.826Z,8.56
2023-01-13T07:14:27.678Z,8.65
2023-01-13T07:19:27.623Z,8.62
2023-01-13T07:24:27.578Z,8.48
2023-01-13T07:29:28.631Z,8.53
2023-01-13T07:34:27.439Z,8.56
2023-01-13T07:39:27.490Z,8.53
2023-01-13T07:44:27.345Z,8.50
2023-01-13T07:49:28.363Z,8.50
2023-01-13T07:54:39.737Z,8.55
2023-01-13T07:59:28.176Z,8.86
2023-01-13T08:04:27.128Z,8.92
2023-01-13T08:09:27.092Z,8.94
2023-01-13T08:14:27.041Z,9.02
2023-01-13T08:19:26.961Z,9.17
2023-01-13T08:24:26.909Z,9.10
2023-01-13T08:29:26.843Z,9.11
2023-01-13T08:34:26.820Z,9.20
2023-01-13T08:39:26.734Z,9.10
2023-01-13T08:44:26.706Z,9.28
2023-01-13T08:49:26.663Z,9.18
2023-01-13T08:54:26.559Z,9.40
2023-01-13T08:59:26.528Z,9.28
2023-01-13T09:04:26.551Z,9.43
2023-01-13T09:09:26.431Z,9.40
2023-01-13T09:14:26.339Z,9.42
2023-01-13T09:19:26.286Z,9.47
2023-01-13T09:24:26.238Z,9.35
2023-01-13T09:29:26.192Z,9.54
2023-01-13T09:34:26.205Z,9.56
2023-01-13T09:39:26.067Z,9.43
2023-01-13T09:44:26.039Z,9.65
2023-01-13T09:49:26.021Z,9.64
2023-01-13T09:54:25.997Z,9.69
2023-01-13T09:59:26.001Z,9.75
2023-01-13T10:04:26.951Z,9.90
2023-01-13T10:09:25.847Z,9.58
2023-01-13T10:14:25.734Z,9.75
2023-01-13T10:19:25.708Z,9.99
2023-01-13T10:24:25.648Z,9.78
2023-01-13T10:29:25.721Z,10.15
2023-01-13T10:34:25.568Z,10.01
2023-01-13T10:39:25.415Z,10.05
2023-01-13T10:44:25.434Z,10.02
2023-01-13T10:49:25.352Z,10.12
2023-01-13T10:54:25.295Z,10.40
2023-01-13T10:59:25.232Z,10.56
2023-01-13T11:04:25.179Z,10.85
2023-01-13T11:09:25.073Z,10.61
2023-01-13T11:14:25.035Z,10.76
2023-01-13T11:19:24.980Z,10.71
2023-01-13T11:24:24.913Z,10.79
2023-01-13T11:29:24.889Z,10.55
2023-01-13T11:34:24.848Z,10.56
2023-01-13T11:39:24.739Z,10.40
2023-01-13T11:44:24.720Z,10.42
2023-01-13T11:49:24.665Z,10.52
2023-01-13T11:54:24.617Z,10.61
2023-01-13T11:59:24.531Z,10.66
2023-01-13T12:04:24.487Z,10.26
2023-01-13T12:09:24.430Z,10.01
2023-01-13T12:14:24.378Z,9.84
2023-01-13T12:19:24.338Z,9.46
2023-01-13T12:24:24.237Z,9.32
2023-01-13T12:29:24.198Z,9.47
2023-01-13T12:34:24.165Z,9.23
2023-01-13T12:39:24.125Z,9.11
2023-01-13T12:44:24.029Z,8.11
2023-01-13T12:49:24.049Z,7.57
2023-01-13T12:54:23.939Z,7.53
2023-01-13T12:59:23.890Z,7.69
2023-01-13T13:04:23.831Z,7.58
2023-01-13T13:09:23.777Z,7.95
2023-01-13T13:14:23.717Z,8.20
2023-01-13T13:19:23.644Z,8.50
2023-01-13T13:24:23.623Z,8.61
2023-01-13T13:29:23.550Z,8.86
2023-01-13T13:34:23.509Z,9.11
2023-01-13T13:39:23.420Z,8.99
2023-01-13T13:44:23.385Z,8.98
2023-01-13T13:49:23.319Z,8.96
2023-01-13T13:54:23.293Z,9.04
2023-01-13T13:59:23.234Z,9.05
2023-01-13T14:04:23.216Z,8.96
2023-01-13T14:09:23.092Z,8.94
2023-01-13T14:14:22.996Z,8.96
2023-01-13T14:19:22.948Z,8.98
2023-01-13T14:24:22.893Z,8.81
2023-01-13T14:29:22.854Z,8.99
2023-01-13T14:34:31.017Z,8.94
2023-01-13T14:39:23.738Z,9.05
2023-01-13T14:44:22.662Z,8.83
2023-01-13T14:49:22.587Z,9.05
2023-01-13T14:54:24.577Z,8.98
2023-01-13T14:59:22.491Z,9.13
2023-01-13T15:04:22.412Z,8.87
2023-01-13T15:09:22.377Z,8.92
2023-01-13T15:14:22.437Z,9.02
2023-01-13T15:19:22.251Z,8.91
2023-01-13T15:24:22.188Z,8.94
2023-01-13T15:29:24.377Z,9.13
2023-01-13T15:34:22.137Z,8.81
2023-01-13T15:39:22.137Z,8.81
2023-01-13T15:44:22.051Z,8.84
2023-01-13T15:49:21.962Z,8.87
2023-01-13T15:54:22.207Z,8.84
2023-01-13T15:59:21.821Z,8.80
2023-01-13T16:04:21.791Z,9.01
2023-01-13T16:09:21.711Z,8.96
2023-01-13T16:14:21.650Z,8.92
2023-01-13T16:19:21.632Z,8.92
2023-01-13T16:24:21.550Z,9.01
2023-01-13T16:29:21.525Z,8.95
2023-01-13T16:34:21.483Z,8.96
2023-01-13T16:39:21.437Z,9.02
2023-01-13T16:44:21.366Z,8.98
2023-01-13T16:49:21.339Z,8.89
2023-01-13T16:54:21.321Z,8.89
2023-01-13T16:59:21.252Z,8.77
2023-01-13T17:04:21.206Z,8.80
2023-01-13T17:09:21.208Z,8.77
2023-01-13T17:14:21.103Z,8.65
2023-01-13T17:19:21.103Z,8.56
2023-01-13T17:24:20.983Z,8.83
2023-01-13T17:29:20.953Z,8.80
2023-01-13T17:34:20.890Z,8.70
2023-01-13T17:39:20.900Z,8.66
2023-01-13T17:44:20.884Z,8.58
2023-01-13T17:49:20.695Z,8.63
2023-01-13T17:54:20.634Z,8.62
2023-01-13T17:59:20.559Z,8.59
2023-01-13T18:04:20.658Z,8.44
2023-01-13T18:09:20.476Z,8.61
2023-01-13T18:14:20.412Z,8.41
2023-01-13T18:19:20.354Z,8.36
2023-01-13T18:24:20.304Z,8.74
2023-01-13T18:29:20.297Z,8.68
2023-01-13T18:34:20.230Z,8.86
2023-01-13T18:39:20.160Z,8.81
2023-01-13T18:44:20.064Z,8.83
2023-01-13T18:49:20.060Z,8.94
2023-01-13T18:54:19.968Z,8.92
2023-01-13T18:59:19.928Z,9.05
2023-01-13T19:04:19.856Z,8.91
2023-01-13T19:09:19.819Z,8.91
2023-01-13T19:14:19.768Z,8.98
2023-01-13T19:19:20.848Z,8.79
2023-01-13T19:24:19.618Z,8.99
2023-01-13T19:29:19.670Z,9.14
2023-01-13T19:34:19.588Z,9.02
2023-01-13T19:39:19.484Z,9.04
2023-01-13T19:44:19.509Z,9.17
2023-01-13T19:49:20.374Z,9.02
2023-01-13T19:54:19.286Z,9.28
2023-01-13T19:59:19.226Z,9.21
2023-01-13T20:04:19.195Z,9.15
2023-01-13T20:09:19.154Z,9.21
2023-01-13T20:14:19.055Z,8.94
2023-01-13T20:19:19.004Z,9.23
2023-01-13T20:24:19.014Z,9.17
2023-01-13T20:29:18.990Z,9.24
2023-01-13T20:34:19.916Z,9.21
2023-01-13T20:39:18.963Z,9.15
2023-01-13T20:44:18.743Z,9.02
2023-01-13T20:49:18.693Z,9.05
2023-01-13T20:54:18.656Z,8.84
2023-01-13T20:59:18.606Z,8.91
2023-01-13T21:04:18.508Z,8.73
2023-01-13T21:09:18.576Z,8.84
2023-01-13T21:14:18.425Z,8.65
2023-01-13T21:19:18.454Z,8.58
2023-01-13T21:24:18.389Z,8.61
2023-01-13T21:29:18.277Z,8.45
2023-01-13T21:34:18.220Z,8.50
2023-01-13T21:39:18.263Z,8.47
2023-01-13T21:44:18.211Z,8.44
2023-01-13T21:49:18.067Z,8.38
2023-01-13T21:54:17.965Z,8.50
2023-01-13T21:59:17.973Z,8.48
2023-01-13T22:04:17.939Z,8.58
2023-01-13T22:09:17.840Z,8.61
2023-01-13T22:14:17.754Z,8.68
2023-01-13T22:19:17.730Z,8.70
2023-01-13T22:24:17.656Z,8.77
2023-01-13T22:29:17.606Z,8.80
2023-01-13T22:34:17.631Z,9.04
2023-01-13T22:39:17.534Z,8.86
2023-01-13T22:44:17.487Z,8.81
2023-01-13T22:49:17.397Z,8.94
2023-01-13T22:54:17.373Z,8.99
2023-01-13T22:59:17.268Z,9.01
2023-01-13T23:04:17.288Z,8.87
2023-01-13T23:09:17.157Z,9.01
2023-01-13T23:14:17.103Z,8.94
2023-01-13T23:19:17.061Z,8.87
2023-01-13T23:24:16.974Z,8.89
2023-01-13T23:29:16.957Z,8.89
2023-01-13T23:34:16.937Z,8.79
2023-01-13T23:39:16.843Z,8.74
2023-01-13T23:44:16.761Z,8.80
2023-01-13T23:49:16.877Z,8.81
2023-01-13T23:54:16.660Z,8.77
2023-01-13T23:59:16.743Z,8.66
